createdAt,value
2019-01-19T00:01:06.200Z,99.90
2019-01-19T00:04:23.211Z,99.90
2019-01-19T00:07:23.061Z,99.90
2019-01-19T00:10:14.468Z,99.90
2019-01-19T00:13:27.408Z,99.90
2019-01-19T00:16:02.981Z,99.90
2019-01-19T00:19:20.700Z,99.90
2019-01-19T00:22:25.857Z,99.90
2019-01-19T00:25:29.000Z,99.90
2019-01-19T00:28:18.283Z,99.90
2019-01-19T00:31:10.016Z,99.90
2019-01-19T00:34:11.588Z,99.90
2019-01-19T00:37:04.524Z,99.90
2019-01-19T00:40:01.029Z,99.90
2019-01-19T00:43:01.947Z,99.90
2019-01-19T00:46:01.144Z,99.90
2019-01-19T00:49:10.188Z,99.90
2019-01-19T00:52:12.090Z,99.90
2019-01-19T00:55:20.624Z,99.90
2019-01-19T00:58:19.276Z,99.90
2019-01-19T01:00:58.592Z,99.90
2019-01-19T01:03:38.486Z,99.90
2019-01-19T01:06:29.933Z,99.90
2019-01-19T01:09:47.197Z,99.90
2019-01-19T01:12:45.020Z,99.90
2019-01-19T01:15:46.989Z,99.90
2019-01-19T01:18:41.473Z,99.90
2019-01-19T01:21:43.485Z,99.90
2019-01-19T01:24:32.240Z,99.90
2019-01-19T01:27:58.775Z,99.90
2019-01-19T01:30:59.514Z,99.90
2019-01-19T01:34:15.622Z,99.90
2019-01-19T01:37:20.889Z,99.90
2019-01-19T01:40:22.115Z,99.90
2019-01-19T01:43:12.608Z,99.90
2019-01-19T01:46:21.411Z,99.90
2019-01-19T01:49:19.061Z,99.90
2019-01-19T01:52:15.794Z,99.90
2019-01-19T01:55:15.870Z,99.90
2019-01-19T01:58:00.208Z,99.90
2019-01-19T02:01:13.520Z,99.90
2019-01-19T02:04:30.428Z,99.90
2019-01-19T02:07:36.852Z,99.90
2019-01-19T02:10:37.077Z,99.90
2019-01-19T02:13:47.210Z,99.90
2019-01-19T02:17:05.948Z,99.90
2019-01-19T02:20:27.268Z,99.90
2019-01-19T02:23:34.108Z,99.90
2019-01-19T02:26:37.224Z,99.90
2019-01-19T02:29:54.749Z,99.90
2019-01-19T02:32:48.888Z,99.90
2019-01-19T02:35:48.297Z,99.90
2019-01-19T02:38:40.680Z,99.90
2019-01-19T02:41:54.128Z,99.90
2019-01-19T02:44:53.472Z,99.90
2019-01-19T02:47:37.613Z,99.90
2019-01-19T02:50:29.012Z,99.90
2019-01-19T02:53:22.990Z,99.90
2019-01-19T02:56:18.084Z,99.90
2019-01-19T02:59:11.513Z,99.90
2019-01-19T03:02:14.641Z,99.90
2019-01-19T03:04:59.139Z,99.90
2019-01-19T03:08:00.983Z,99.90
2019-01-19T03:10:46.577Z,99.90
2019-01-19T03:13:46.505Z,99.90
2019-01-19T03:16:41.582Z,99.90
2019-01-19T03:19:49.141Z,99.90
2019-01-19T03:22:48.762Z,99.90
2019-01-19T03:25:27.093Z,99.90
2019-01-19T03:28:36.875Z,99.90
2019-01-19T03:31:40.354Z,99.90
2019-01-19T03:34:48.538Z,99.90
2019-01-19T03:37:53.453Z,99.90
2019-01-19T03:40:39.360Z,99.90
2019-01-19T03:44:14.254Z,99.90
2019-01-19T03:47:22.454Z,99.90
2019-01-19T03:51:03.700Z,99.90
2019-01-19T03:53:52.000Z,99.90
2019-01-19T03:57:08.444Z,99.90
2019-01-19T03:59:59.100Z,99.90
2019-01-19T04:02:59.730Z,99.90
2019-01-19T04:06:00.772Z,99.90
2019-01-19T04:09:18.024Z,99.90
2019-01-19T04:12:27.698Z,99.90
2019-01-19T04:15:36.957Z,99.90
2019-01-19T04:18:19.209Z,99.90
2019-01-19T04:21:08.097Z,99.90
2019-01-19T04:23:39.161Z,99.90
2019-01-19T04:26:17.825Z,99.90
2019-01-19T04:28:47.988Z,99.90
2019-01-19T04:31:17.817Z,99.90
2019-01-19T04:33:47.988Z,99.90
2019-01-19T04:36:21.650Z,99.90
2019-01-19T04:38:50.221Z,99.90
2019-01-19T04:41:20.385Z,99.90
2019-01-19T04:43:50.205Z,99.90
2019-01-19T04:46:20.116Z,99.90
2019-01-19T04:48:50.719Z,99.90
2019-01-19T04:51:20.547Z,99.90
2019-01-19T04:53:50.554Z,99.90
2019-01-19T04:56:20.893Z,99.90
2019-01-19T04:58:50.669Z,99.90
2019-01-19T05:01:20.524Z,99.90
2019-01-19T05:03:50.289Z,99.90
2019-01-19T05:06:20.449Z,99.90
2019-01-19T05:08:50.309Z,99.90
2019-01-19T05:11:20.222Z,99.90
2019-01-19T05:13:50.149Z,99.90
2019-01-19T05:16:20.176Z,99.90
2019-01-19T05:18:50.021Z,99.90
2019-01-19T05:21:20.304Z,99.90
2019-01-19T05:23:51.444Z,99.90
2019-01-19T05:26:21.366Z,99.90
2019-01-19T05:28:51.178Z,99.90
2019-01-19T05:31:21.088Z,99.90
2019-01-19T05:33:50.926Z,99.90
2019-01-19T05:36:20.868Z,99.90
2019-01-19T05:38:51.193Z,99.90
2019-01-19T05:41:21.173Z,99.90
2019-01-19T05:43:51.168Z,99.90
2019-01-19T05:46:21.482Z,99.90
2019-01-19T05:48:51.668Z,99.90
2019-01-19T05:51:21.740Z,99.90
2019-01-19T05:53:51.813Z,99.90
2019-01-19T05:56:21.910Z,99.90
2019-01-19T05:58:51.737Z,99.90
2019-01-19T06:01:22.743Z,99.90
2019-01-19T06:03:52.649Z,99.90
2019-01-19T06:06:23.022Z,99.90
2019-01-19T06:08:52.985Z,99.90
2019-01-19T06:11:22.908Z,99.90
2019-01-19T06:13:52.737Z,99.90
2019-01-19T06:16:22.853Z,99.90
2019-01-19T06:18:53.146Z,99.90
2019-01-19T06:21:26.941Z,99.90
2019-01-19T06:23:56.786Z,99.90
2019-01-19T06:26:26.613Z,99.90
2019-01-19T06:28:56.526Z,99.90
2019-01-19T06:31:26.492Z,99.90
2019-01-19T06:33:56.327Z,99.90
2019-01-19T06:36:26.152Z,99.90
2019-01-19T06:38:55.909Z,99.90
2019-01-19T06:41:25.813Z,99.90
2019-01-19T06:43:55.985Z,99.90
2019-01-19T06:46:25.815Z,99.90
2019-01-19T06:48:55.944Z,99.90
2019-01-19T06:51:25.693Z,99.90
2019-01-19T06:54:01.513Z,99.90
2019-01-19T06:56:28.769Z,99.90
2019-01-19T06:58:58.528Z,99.90
2019-01-19T07:01:28.420Z,99.90
2019-01-19T07:03:58.263Z,99.90
2019-01-19T07:06:28.092Z,99.90
2019-01-19T07:08:57.844Z,99.90
2019-01-19T07:11:27.681Z,99.90
2019-01-19T07:13:59.088Z,99.90
2019-01-19T07:16:29.020Z,99.90
2019-01-19T07:18:58.789Z,99.90
2019-01-19T07:21:28.681Z,99.90
2019-01-19T07:23:58.594Z,99.90
2019-01-19T07:26:28.484Z,99.90
2019-01-19T07:28:58.412Z,99.90
2019-01-19T07:31:28.333Z,99.90
2019-01-19T07:33:58.240Z,99.90
2019-01-19T07:36:28.421Z,99.90
2019-01-19T07:38:58.348Z,99.90
2019-01-19T07:41:28.212Z,99.90
2019-01-19T07:43:58.222Z,99.90
2019-01-19T07:46:28.642Z,99.90
2019-01-19T07:48:58.660Z,99.90
2019-01-19T07:51:28.576Z,99.90
2019-01-19T07:53:58.513Z,99.90
2019-01-19T07:56:28.344Z,99.90
2019-01-19T07:58:58.253Z,99.90
2019-01-19T08:01:28.096Z,99.90
2019-01-19T08:03:58.158Z,99.90
2019-01-19T08:06:28.084Z,99.90
2019-01-19T08:08:59.695Z,99.90
2019-01-19T08:11:29.512Z,99.90
2019-01-19T08:13:59.416Z,99.90
2019-01-19T08:16:29.361Z,99.90
2019-01-19T08:18:59.200Z,99.90
2019-01-19T08:21:29.204Z,99.90
2019-01-19T08:23:59.121Z,99.90
2019-01-19T08:26:29.017Z,99.90
2019-01-19T08:28:59.237Z,99.90
2019-01-19T08:31:29.143Z,99.90
2019-01-19T08:33:58.966Z,99.90
2019-01-19T08:36:28.952Z,99.90
2019-01-19T08:38:58.685Z,99.90
2019-01-19T08:41:28.521Z,99.90
2019-01-19T08:44:01.132Z,99.90
2019-01-19T08:46:31.036Z,99.90
2019-01-19T08:49:01.092Z,99.90
2019-01-19T08:51:30.996Z,99.90
2019-01-19T08:54:00.848Z,99.90
2019-01-19T08:56:30.684Z,99.90
2019-01-19T08:59:00.760Z,99.90
2019-01-19T09:01:30.931Z,99.90
2019-01-19T09:04:00.673Z,99.90
2019-01-19T09:06:31.558Z,99.90
2019-01-19T09:09:01.397Z,99.90
2019-01-19T09:11:31.577Z,99.90
2019-01-19T09:14:01.409Z,99.90
2019-01-19T09:16:31.313Z,99.90
2019-01-19T09:19:01.235Z,99.90
2019-01-19T09:21:31.129Z,99.90
2019-01-19T09:24:02.552Z,99.90
2019-01-19T09:26:32.448Z,99.90
2019-01-19T09:29:02.309Z,99.90
2019-01-19T09:31:32.117Z,99.90
2019-01-19T09:34:01.960Z,99.90
2019-01-19T09:36:31.848Z,99.90
2019-01-19T09:39:01.678Z,99.90
2019-01-19T09:41:32.969Z,99.90
2019-01-19T09:44:02.861Z,99.90
2019-01-19T09:46:32.752Z,99.90
2019-01-19T09:49:02.652Z,99.90
2019-01-19T09:51:32.472Z,99.90
2019-01-19T09:54:02.374Z,99.90
2019-01-19T09:56:32.190Z,99.90
2019-01-19T09:59:02.017Z,99.90
2019-01-19T10:01:32.813Z,99.90
2019-01-19T10:04:02.713Z,99.90
2019-01-19T10:06:32.608Z,99.90
2019-01-19T10:09:02.581Z,99.90
2019-01-19T10:11:32.719Z,99.90
2019-01-19T10:14:02.613Z,99.90
2019-01-19T10:16:32.425Z,99.90
2019-01-19T10:19:02.277Z,99.90
2019-01-19T10:21:32.706Z,98.20
2019-01-19T10:24:02.725Z,99.90
2019-01-19T10:26:32.727Z,99.90
2019-01-19T10:29:02.728Z,99.90
2019-01-19T10:31:32.737Z,99.90
2019-01-19T10:34:02.738Z,99.90
2019-01-19T10:36:32.739Z,99.90
2019-01-19T10:39:02.719Z,99.90
2019-01-19T10:41:32.616Z,99.90
2019-01-19T10:44:02.525Z,99.90
2019-01-19T10:46:32.422Z,99.90
2019-01-19T10:49:02.254Z,99.90
2019-01-19T10:51:32.168Z,99.90
2019-01-19T10:54:02.258Z,99.90
2019-01-19T10:56:32.132Z,99.90
2019-01-19T10:59:01.968Z,99.30
2019-01-19T11:01:31.728Z,98.10
2019-01-19T11:04:01.873Z,99.90
2019-01-19T11:06:31.965Z,99.90
2019-01-19T11:09:02.333Z,99.90
2019-01-19T11:11:33.488Z,99.90
2019-01-19T11:14:03.402Z,99.20
2019-01-19T11:16:33.357Z,99.00
2019-01-19T11:19:03.668Z,99.90
2019-01-19T11:21:33.489Z,99.10
2019-01-19T11:24:03.432Z,98.30
2019-01-19T11:26:33.189Z,96.40
2019-01-19T11:29:03.073Z,98.80
2019-01-19T11:31:33.293Z,99.90
2019-01-19T11:34:03.106Z,97.50
2019-01-19T11:36:33.298Z,98.30
2019-01-19T11:39:05.213Z,97.60
2019-01-19T11:41:36.784Z,99.90
2019-01-19T11:44:07.238Z,99.90
2019-01-19T11:46:37.485Z,99.90
2019-01-19T11:49:07.789Z,99.90
2019-01-19T11:51:38.133Z,99.90
2019-01-19T11:54:11.705Z,99.90
2019-01-19T11:56:41.964Z,99.90
2019-01-19T11:59:12.156Z,99.90
2019-01-19T12:01:43.150Z,99.90
2019-01-19T12:04:17.837Z,99.90
2019-01-19T12:06:52.618Z,99.90
2019-01-19T12:09:22.908Z,99.90
2019-01-19T12:11:53.441Z,99.90
2019-01-19T12:14:23.904Z,99.90
2019-01-19T12:16:54.753Z,99.70
2019-01-19T12:19:25.589Z,99.10
2019-01-19T12:21:56.734Z,98.90
2019-01-19T12:24:27.514Z,98.80
2019-01-19T12:26:57.847Z,98.20
2019-01-19T12:29:28.456Z,97.40
2019-01-19T12:32:00.473Z,98.20
2019-01-19T12:34:31.025Z,99.90
2019-01-19T12:37:01.285Z,99.80
2019-01-19T12:39:31.756Z,99.90
2019-01-19T12:42:02.204Z,99.90
2019-01-19T12:44:32.680Z,99.90
2019-01-19T12:47:03.027Z,98.90
2019-01-19T12:49:33.511Z,96.40
2019-01-19T12:52:04.241Z,88.70
2019-01-19T12:54:35.181Z,78.10
2019-01-19T12:57:05.711Z,80.60
2019-01-19T12:59:40.455Z,74.00
2019-01-19T13:02:12.609Z,84.30
2019-01-19T13:04:46.460Z,88.80
2019-01-19T13:07:22.341Z,92.50
2019-01-19T13:10:00.009Z,97.40
2019-01-19T13:12:51.559Z,98.10
2019-01-19T13:16:01.487Z,96.30
2019-01-19T13:18:56.834Z,96.80
2019-01-19T13:22:09.796Z,97.80
2019-01-19T13:25:05.885Z,99.50
2019-01-19T13:28:16.925Z,96.80
2019-01-19T13:31:10.858Z,85.30
2019-01-19T13:34:11.222Z,91.30
2019-01-19T13:37:15.818Z,92.60
2019-01-19T13:40:16.084Z,93.60
2019-01-19T13:43:32.641Z,98.90
2019-01-19T13:46:24.785Z,99.90
2019-01-19T13:49:34.458Z,99.90
2019-01-19T13:52:55.792Z,99.90
2019-01-19T13:56:05.559Z,98.70
2019-01-19T13:58:52.945Z,98.70
2019-01-19T14:02:19.367Z,99.90
2019-01-19T14:05:25.652Z,99.90
2019-01-19T14:08:40.204Z,99.90
2019-01-19T14:11:54.358Z,99.90
2019-01-19T14:15:10.963Z,99.90
2019-01-19T14:18:28.821Z,99.90
2019-01-19T14:21:25.949Z,99.90
2019-01-19T14:24:32.835Z,99.90
2019-01-19T14:27:38.562Z,99.90
2019-01-19T14:31:01.784Z,99.90
2019-01-19T14:34:06.375Z,99.90
2019-01-19T14:37:05.125Z,99.90
2019-01-19T14:40:22.131Z,99.90
2019-01-19T14:43:22.908Z,99.90
2019-01-19T14:46:37.143Z,99.90
2019-01-19T14:49:46.298Z,99.90
2019-01-19T14:52:29.379Z,99.90
2019-01-19T14:55:36.414Z,99.90
2019-01-19T14:58:48.148Z,99.90
2019-01-19T15:01:59.254Z,99.90
2019-01-19T15:04:51.514Z,99.90
2019-01-19T15:07:48.560Z,99.90
2019-01-19T15:10:47.431Z,99.90
2019-01-19T15:13:49.704Z,99.90
2019-01-19T15:17:09.748Z,99.90
2019-01-19T15:20:39.124Z,99.90
2019-01-19T15:23:45.719Z,99.90
2019-01-19T15:26:52.590Z,99.90
2019-01-19T15:29:40.817Z,99.90
2019-01-19T15:32:33.871Z,99.90
2019-01-19T15:35:33.936Z,99.90
2019-01-19T15:38:40.035Z,99.90
2019-01-19T15:42:04.165Z,99.90
2019-01-19T15:45:24.482Z,99.90
2019-01-19T15:48:21.155Z,99.90
2019-01-19T15:51:23.764Z,99.90
2019-01-19T15:54:10.561Z,99.90
2019-01-19T15:57:24.849Z,99.90
2019-01-19T16:00:45.270Z,99.90
2019-01-19T16:03:58.452Z,99.90
2019-01-19T16:06:54.442Z,99.90
2019-01-19T16:10:10.053Z,99.90
2019-01-19T16:13:28.652Z,99.90
2019-01-19T16:16:39.823Z,99.90
2019-01-19T16:20:05.955Z,99.90
2019-01-19T16:23:38.151Z,99.90
2019-01-19T16:26:56.891Z,99.90
2019-01-19T16:30:10.956Z,99.90
2019-01-19T16:33:19.102Z,99.90
2019-01-19T16:36:33.981Z,99.90
2019-01-19T16:39:32.767Z,99.90
2019-01-19T16:42:47.452Z,99.90
2019-01-19T16:46:10.412Z,99.90
2019-01-19T16:49:20.108Z,99.90
2019-01-19T16:52:47.288Z,99.90
2019-01-19T16:55:43.477Z,99.90
2019-01-19T16:58:48.598Z,99.90
2019-01-19T17:01:40.850Z,99.90
2019-01-19T17:04:45.968Z,99.90
2019-01-19T17:08:08.707Z,99.90
2019-01-19T17:11:14.578Z,99.90
2019-01-19T17:14:28.680Z,99.90
2019-01-19T17:17:45.571Z,99.90
2019-01-19T17:20:26.491Z,99.90
2019-01-19T17:23:31.147Z,99.90
2019-01-19T17:26:34.483Z,99.90
2019-01-19T17:29:37.531Z,99.90
2019-01-19T17:32:27.123Z,99.90
2019-01-19T17:35:39.735Z,99.90
2019-01-19T17:38:28.137Z,99.90
2019-01-19T17:41:32.366Z,99.90
2019-01-19T17:44:30.842Z,99.90
2019-01-19T17:47:32.060Z,99.90
2019-01-19T17:50:47.911Z,99.90
2019-01-19T17:53:59.284Z,99.90
2019-01-19T17:56:54.817Z,99.90
2019-01-19T18:00:20.664Z,99.90
2019-01-19T18:03:21.928Z,99.90
2019-01-19T18:06:23.658Z,99.90
2019-01-19T18:09:49.750Z,99.90
2019-01-19T18:13:09.680Z,99.90
2019-01-19T18:16:04.755Z,99.90
2019-01-19T18:19:05.545Z,99.90
2019-01-19T18:22:19.641Z,99.90
2019-01-19T18:25:03.980Z,99.90
2019-01-19T18:28:32.816Z,99.90
2019-01-19T18:31:38.800Z,99.90
2019-01-19T18:34:59.052Z,99.90
2019-01-19T18:38:12.933Z,99.90
2019-01-19T18:41:35.984Z,99.90
2019-01-19T18:45:05.590Z,99.90
2019-01-19T18:48:34.314Z,99.90
2019-01-19T18:51:36.804Z,99.90
2019-01-19T18:54:38.169Z,99.90
2019-01-19T18:57:38.912Z,99.90
2019-01-19T19:00:41.395Z,99.90
2019-01-19T19:03:22.321Z,99.90
2019-01-19T19:06:29.124Z,99.90
2019-01-19T19:09:22.819Z,99.90
2019-01-19T19:12:33.917Z,99.90
2019-01-19T19:15:47.782Z,99.90
2019-01-19T19:18:52.329Z,99.90
2019-01-19T19:22:22.049Z,99.90
2019-01-19T19:25:24.354Z,99.90
2019-01-19T19:28:25.342Z,99.90
2019-01-19T19:31:23.507Z,99.90
2019-01-19T19:34:36.132Z,99.90
2019-01-19T19:37:56.097Z,99.90
2019-01-19T19:40:57.896Z,99.90
2019-01-19T19:43:43.125Z,99.90
2019-01-19T19:46:23.717Z,99.90
2019-01-19T19:49:25.024Z,99.90
2019-01-19T19:52:00.603Z,99.90
2019-01-19T19:54:31.632Z,99.90
2019-01-19T19:57:01.958Z,99.90
2019-01-19T19:59:31.804Z,99.90
2019-01-19T20:02:02.037Z,99.90
2019-01-19T20:04:32.098Z,99.90
2019-01-19T20:07:01.994Z,99.90
2019-01-19T20:09:32.188Z,99.90
2019-01-19T20:12:11.097Z,99.90
2019-01-19T20:14:41.032Z,99.90
2019-01-19T20:17:10.944Z,99.90
2019-01-19T20:19:40.789Z,99.90
2019-01-19T20:22:10.708Z,99.90
2019-01-19T20:24:40.648Z,99.90
2019-01-19T20:27:10.488Z,99.90
2019-01-19T20:29:40.400Z,99.90
2019-01-19T20:32:10.644Z,99.90
2019-01-19T20:34:41.460Z,99.90
2019-01-19T20:37:11.285Z,99.90
2019-01-19T20:39:41.110Z,99.90
2019-01-19T20:42:11.072Z,99.90
2019-01-19T20:44:40.847Z,99.90
2019-01-19T20:47:11.009Z,99.90
2019-01-19T20:49:40.849Z,99.90
2019-01-19T20:52:10.683Z,99.90
2019-01-19T20:54:40.750Z,99.90
2019-01-19T20:57:10.920Z,99.90
2019-01-19T20:59:40.952Z,99.90
2019-01-19T21:02:10.929Z,99.90
2019-01-19T21:04:41.016Z,99.90
2019-01-19T21:07:10.880Z,99.90
2019-01-19T21:09:40.726Z,99.90
2019-01-19T21:12:10.708Z,99.90
2019-01-19T21:14:40.573Z,99.90
2019-01-19T21:17:10.443Z,99.90
2019-01-19T21:19:40.448Z,99.90
2019-01-19T21:22:10.362Z,99.90
2019-01-19T21:24:40.209Z,99.90
2019-01-19T21:27:10.047Z,99.90
2019-01-19T21:29:39.916Z,99.90
2019-01-19T21:32:09.848Z,99.90
2019-01-19T21:34:39.782Z,99.90
2019-01-19T21:37:09.592Z,99.90
2019-01-19T21:39:39.400Z,99.90
2019-01-19T21:42:09.320Z,99.90
2019-01-19T21:44:39.193Z,99.90
2019-01-19T21:47:10.176Z,99.90
2019-01-19T21:49:40.497Z,99.90
2019-01-19T21:52:10.551Z,99.90
2019-01-19T21:54:40.777Z,99.90
2019-01-19T21:57:10.986Z,99.90
2019-01-19T21:59:40.852Z,99.90
2019-01-19T22:02:10.780Z,99.90
2019-01-19T22:04:40.667Z,99.90
2019-01-19T22:07:10.829Z,99.90
2019-01-19T22:09:40.669Z,99.90
2019-01-19T22:12:10.515Z,99.90
2019-01-19T22:14:40.336Z,99.90
2019-01-19T22:17:10.253Z,99.90
2019-01-19T22:19:40.073Z,99.90
2019-01-19T22:22:10.237Z,99.90
2019-01-19T22:24:40.139Z,99.90
2019-01-19T22:27:11.588Z,99.90
2019-01-19T22:29:41.402Z,99.90
2019-01-19T22:32:11.168Z,99.90
2019-01-19T22:34:40.992Z,99.90
2019-01-19T22:37:10.890Z,99.90
2019-01-19T22:39:40.720Z,99.90
2019-01-19T22:42:10.484Z,99.90
2019-01-19T22:44:40.428Z,99.90
2019-01-19T22:47:10.573Z,99.90
2019-01-19T22:49:40.710Z,99.90
2019-01-19T22:52:10.972Z,99.90
2019-01-19T22:54:41.289Z,99.90
2019-01-19T22:57:11.293Z,99.90
2019-01-19T22:59:41.209Z,99.90
2019-01-19T23:02:12.868Z,99.90
2019-01-19T23:04:43.318Z,99.90
2019-01-19T23:07:13.709Z,99.90
2019-01-19T23:09:44.649Z,99.90
2019-01-19T23:12:14.837Z,99.90
2019-01-19T23:14:44.821Z,99.90
2019-01-19T23:17:14.894Z,99.90
2019-01-19T23:19:45.079Z,99.90
2019-01-19T23:22:15.615Z,99.90
2019-01-19T23:24:45.785Z,99.90
2019-01-19T23:27:15.967Z,99.90
2019-01-19T23:29:45.865Z,99.90
2019-01-19T23:32:15.797Z,99.90
2019-01-19T23:34:45.691Z,99.90
2019-01-19T23:37:15.572Z,99.90
2019-01-19T23:39:45.398Z,99.90
2019-01-19T23:42:15.393Z,99.90
2019-01-19T23:44:45.464Z,99.90
2019-01-19T23:47:15.845Z,99.90
2019-01-19T23:49:45.695Z,99.90
2019-01-19T23:52:15.882Z,99.90
2019-01-19T23:54:45.692Z,99.90
2019-01-19T23:57:15.456Z,99.90
2019-01-19T23:59:45.408Z,99.90
